createdAt,value
2022-07-29T00:00:06.601Z,93851.03
2022-07-29T00:01:08.099Z,93850.69
2022-07-29T00:02:21.084Z,93848.03
2022-07-29T00:03:22.766Z,93845.34
2022-07-29T00:04:24.345Z,93840.84
2022-07-29T00:05:26.087Z,93845.56
2022-07-29T00:06:27.573Z,93837.22
2022-07-29T00:07:29.177Z,93841.31
2022-07-29T00:08:30.715Z,93842.50
2022-07-29T00:09:33.635Z,93839.38
2022-07-29T00:10:51.979Z,93847.03
2022-07-29T00:11:54.578Z,93840.03
2022-07-29T00:12:56.051Z,93847.78
2022-07-29T00:13:57.756Z,93830.75
2022-07-29T00:14:59.229Z,93844.50
2022-07-29T00:16:04.481Z,93836.06
2022-07-29T00:17:06.730Z,93832.34
2022-07-29T00:18:08.279Z,93830.84
2022-07-29T00:19:09.744Z,93828.28
2022-07-29T00:20:12.534Z,93821.78
2022-07-29T00:21:14.144Z,93829.66
2022-07-29T00:22:15.878Z,93824.81
2022-07-29T00:23:17.346Z,93818.66
2022-07-29T00:24:19.233Z,93816.56
2022-07-29T00:25:22.108Z,93812.97
2022-07-29T00:26:24.081Z,93817.81
2022-07-29T00:27:25.540Z,93813.88
2022-07-29T00:28:27.110Z,93812.47
2022-07-29T00:29:34.220Z,93815.47
2022-07-29T00:30:36.289Z,93811.53
2022-07-29T00:31:37.773Z,93808.63
2022-07-29T00:32:39.235Z,93816.63
2022-07-29T00:33:40.716Z,93807.97
2022-07-29T00:34:42.274Z,93799.63
2022-07-29T00:35:43.812Z,93799.75
2022-07-29T00:36:45.266Z,93795.22
2022-07-29T00:37:46.726Z,93798.56
2022-07-29T00:38:48.312Z,93796.97
2022-07-29T00:39:50.014Z,93799.06
2022-07-29T00:40:52.813Z,93790.94
2022-07-29T00:41:54.271Z,93791.44
2022-07-29T00:42:55.714Z,93794.69
2022-07-29T00:43:57.137Z,93790.38
2022-07-29T00:44:58.579Z,93788.50
2022-07-29T00:46:00.041Z,93785.50
2022-07-29T00:47:01.531Z,93786.75
2022-07-29T00:48:03.588Z,93790.00
2022-07-29T00:49:05.216Z,93783.41
2022-07-29T00:50:08.505Z,93781.22
2022-07-29T00:51:10.019Z,93782.41
2022-07-29T00:52:12.283Z,93787.50
2022-07-29T00:53:13.802Z,93777.63
2022-07-29T00:54:15.657Z,93784.22
2022-07-29T00:55:18.110Z,93782.97
2022-07-29T00:56:21.112Z,93780.50
2022-07-29T00:57:22.763Z,93785.38
2022-07-29T00:58:25.267Z,93780.03
2022-07-29T00:59:27.317Z,93783.88
2022-07-29T01:00:36.854Z,93780.16
2022-07-29T01:01:38.496Z,93784.13
2022-07-29T01:02:40.040Z,93777.63
2022-07-29T01:03:41.514Z,93778.09
2022-07-29T01:04:42.961Z,93773.47
2022-07-29T01:05:49.883Z,93770.53
2022-07-29T01:06:55.389Z,93766.34
2022-07-29T01:07:58.559Z,93774.81
2022-07-29T01:09:00.906Z,93768.59
2022-07-29T01:10:03.451Z,93771.03
2022-07-29T01:11:04.897Z,93764.75
2022-07-29T01:12:08.478Z,93765.56
2022-07-29T01:13:11.389Z,93768.81
2022-07-29T01:14:13.427Z,93759.41
2022-07-29T01:15:15.581Z,93765.69
2022-07-29T01:16:25.854Z,93763.69
2022-07-29T01:17:33.126Z,93760.81
2022-07-29T01:18:38.582Z,93761.59
2022-07-29T01:19:49.818Z,93765.63
2022-07-29T01:21:16.583Z,93758.47
2022-07-29T01:22:28.397Z,93753.59
2022-07-29T01:24:00.373Z,93758.47
2022-07-29T01:25:06.551Z,93760.41
2022-07-29T01:26:28.625Z,93760.66
2022-07-29T01:27:45.632Z,93759.75
2022-07-29T01:29:06.122Z,93748.38
2022-07-29T01:30:09.818Z,93755.06
2022-07-29T01:31:21.271Z,93743.56
2022-07-29T01:32:29.557Z,93743.59
2022-07-29T01:33:32.359Z,93746.28
2022-07-29T01:34:42.078Z,93742.56
2022-07-29T01:35:45.913Z,93737.72
2022-07-29T01:36:51.195Z,93738.06
2022-07-29T01:37:58.270Z,93743.16
2022-07-29T01:39:05.952Z,93741.06
2022-07-29T01:40:14.943Z,93744.31
2022-07-29T01:41:18.467Z,93742.91
2022-07-29T01:42:28.456Z,93738.84
2022-07-29T01:43:38.546Z,93742.56
2022-07-29T01:44:49.233Z,93737.94
2022-07-29T01:45:56.986Z,93732.59
2022-07-29T01:47:02.812Z,93733.19
2022-07-29T01:48:07.727Z,93735.94
2022-07-29T01:49:11.920Z,93725.38
2022-07-29T01:50:16.863Z,93735.91
2022-07-29T01:51:21.311Z,93735.53
2022-07-29T01:52:28.486Z,93736.00
2022-07-29T01:53:37.988Z,93729.50
2022-07-29T01:54:43.149Z,93736.56
2022-07-29T01:55:46.701Z,93731.94
2022-07-29T01:56:50.886Z,93734.38
2022-07-29T01:57:52.750Z,93734.03
2022-07-29T01:58:55.308Z,93735.00
2022-07-29T02:00:00.363Z,93736.47
2022-07-29T02:01:03.693Z,93739.34
2022-07-29T02:02:07.569Z,93740.28
2022-07-29T02:03:12.553Z,93727.94
2022-07-29T02:04:29.525Z,93732.44
2022-07-29T02:05:33.636Z,93735.25
2022-07-29T02:06:38.133Z,93731.47
2022-07-29T02:07:42.846Z,93730.44
2022-07-29T02:08:46.591Z,93733.06
2022-07-29T02:09:50.469Z,93726.06
2022-07-29T02:10:53.664Z,93723.88
2022-07-29T02:11:56.833Z,93722.59
2022-07-29T02:12:59.773Z,93716.91
2022-07-29T02:14:03.093Z,93719.56
2022-07-29T02:15:08.063Z,93722.44
2022-07-29T02:16:13.254Z,93725.22
2022-07-29T02:17:21.590Z,93721.41
2022-07-29T02:18:26.130Z,93728.72
2022-07-29T02:19:29.395Z,93724.63
2022-07-29T02:20:32.464Z,93729.25
2022-07-29T02:21:36.210Z,93720.00
2022-07-29T02:22:40.055Z,93712.94
2022-07-29T02:23:45.092Z,93714.53
2022-07-29T02:24:53.984Z,93718.59
2022-07-29T02:25:57.658Z,93722.53
2022-07-29T02:27:00.967Z,93720.78
2022-07-29T02:28:04.722Z,93720.66
2022-07-29T02:29:09.522Z,93721.59
2022-07-29T02:30:13.496Z,93714.84
2022-07-29T02:31:17.747Z,93719.13
2022-07-29T02:32:22.345Z,93715.94
2022-07-29T02:33:25.026Z,93717.31
2022-07-29T02:34:27.893Z,93715.13
2022-07-29T02:35:34.617Z,93716.16
2022-07-29T02:36:37.636Z,93717.19
2022-07-29T02:37:40.872Z,93715.53
2022-07-29T02:38:44.804Z,93714.72
2022-07-29T02:39:48.047Z,93717.41
2022-07-29T02:40:51.417Z,93707.97
2022-07-29T02:41:59.179Z,93709.50
2022-07-29T02:43:02.610Z,93720.66
2022-07-29T02:44:10.111Z,93708.69
2022-07-29T02:45:12.894Z,93713.31
2022-07-29T02:46:28.754Z,93716.94
2022-07-29T02:47:42.075Z,93713.56
2022-07-29T02:48:51.519Z,93712.41
2022-07-29T02:49:58.353Z,93709.97
2022-07-29T02:51:07.923Z,93705.00
2022-07-29T02:52:15.877Z,93708.72
2022-07-29T02:53:20.876Z,93711.16
2022-07-29T02:54:34.714Z,93714.06
2022-07-29T02:55:41.237Z,93705.25
2022-07-29T02:56:45.184Z,93710.47
2022-07-29T02:57:55.471Z,93705.06
2022-07-29T02:58:59.500Z,93706.34
2022-07-29T03:00:05.674Z,93709.94
2022-07-29T03:01:16.755Z,93709.16
2022-07-29T03:02:23.069Z,93703.22
2022-07-29T03:03:29.277Z,93707.03
2022-07-29T03:04:33.063Z,93706.22
2022-07-29T03:05:35.941Z,93706.34
2022-07-29T03:06:39.471Z,93707.16
2022-07-29T03:07:43.988Z,93705.75
2022-07-29T03:08:46.951Z,93712.16
2022-07-29T03:09:49.758Z,93700.41
2022-07-29T03:10:52.974Z,93705.53
2022-07-29T03:11:55.472Z,93702.63
2022-07-29T03:12:58.394Z,93703.94
2022-07-29T03:14:01.719Z,93698.16
2022-07-29T03:15:03.979Z,93700.66
2022-07-29T03:16:06.523Z,93697.00
2022-07-29T03:17:10.656Z,93707.88
2022-07-29T03:18:12.796Z,93698.47
2022-07-29T03:19:15.359Z,93693.97
2022-07-29T03:20:18.989Z,93700.25
2022-07-29T03:21:20.599Z,93693.63
2022-07-29T03:22:22.324Z,93696.06
2022-07-29T03:23:24.748Z,93685.06
2022-07-29T03:24:27.822Z,93688.19
2022-07-29T03:25:29.384Z,93689.13
2022-07-29T03:26:31.102Z,93685.88
2022-07-29T03:27:32.623Z,93688.06
2022-07-29T03:28:34.141Z,93686.81
2022-07-29T03:29:35.810Z,93685.53
2022-07-29T03:30:37.710Z,93685.06
2022-07-29T03:31:40.381Z,93680.00
2022-07-29T03:32:46.560Z,93683.47
2022-07-29T03:33:48.017Z,93689.00
2022-07-29T03:34:49.496Z,93682.88
2022-07-29T03:35:50.966Z,93675.00
2022-07-29T03:36:52.402Z,93683.00
2022-07-29T03:37:53.880Z,93680.31
2022-07-29T03:38:56.550Z,93689.00
2022-07-29T03:39:59.001Z,93684.72
2022-07-29T03:41:06.632Z,93677.19
2022-07-29T03:42:11.213Z,93681.59
2022-07-29T03:43:16.335Z,93688.19
2022-07-29T03:44:19.079Z,93686.94
2022-07-29T03:45:21.407Z,93682.75
2022-07-29T03:46:27.351Z,93687.53
2022-07-29T03:47:36.835Z,93683.72
2022-07-29T03:48:58.439Z,93686.25
2022-07-29T03:50:03.278Z,93685.31
2022-07-29T03:51:04.762Z,93686.25
2022-07-29T03:52:06.701Z,93687.16
2022-07-29T03:53:09.085Z,93687.63
2022-07-29T03:54:10.806Z,93687.03
2022-07-29T03:55:12.937Z,93689.03
2022-07-29T03:56:17.784Z,93682.91
2022-07-29T03:57:21.298Z,93686.72
2022-07-29T03:58:26.936Z,93687.06
2022-07-29T03:59:30.509Z,93688.31
2022-07-29T04:00:33.306Z,93684.97
2022-07-29T04:01:35.689Z,93691.69
2022-07-29T04:02:38.745Z,93681.25
2022-07-29T04:03:40.444Z,93691.34
2022-07-29T04:04:43.473Z,93691.09
2022-07-29T04:05:44.905Z,93684.88
2022-07-29T04:06:48.389Z,93688.69
2022-07-29T04:07:50.001Z,93695.41
2022-07-29T04:08:51.488Z,93691.22
2022-07-29T04:09:52.987Z,93685.44
2022-07-29T04:10:54.523Z,93689.97
2022-07-29T04:12:00.669Z,93687.53
2022-07-29T04:13:04.280Z,93691.56
2022-07-29T04:14:06.024Z,93691.81
2022-07-29T04:15:08.694Z,93691.22
2022-07-29T04:16:10.223Z,93692.50
2022-07-29T04:17:11.768Z,93695.63
2022-07-29T04:18:13.224Z,93695.03
2022-07-29T04:19:14.708Z,93695.16
2022-07-29T04:20:17.519Z,93692.03
2022-07-29T04:21:19.020Z,93696.66
2022-07-29T04:22:20.473Z,93696.91
2022-07-29T04:23:21.970Z,93694.00
2022-07-29T04:24:23.448Z,93701.44
2022-07-29T04:25:24.946Z,93696.53
2022-07-29T04:26:26.405Z,93703.72
2022-07-29T04:27:28.033Z,93704.53
2022-07-29T04:28:29.641Z,93705.59
2022-07-29T04:29:31.101Z,93701.66
2022-07-29T04:30:33.578Z,93704.19
2022-07-29T04:31:35.174Z,93705.91
2022-07-29T04:32:36.694Z,93701.72
2022-07-29T04:33:38.195Z,93705.44
2022-07-29T04:34:39.723Z,93702.22
2022-07-29T04:35:49.715Z,93704.41
2022-07-29T04:36:52.186Z,93704.41
2022-07-29T04:37:53.786Z,93709.16
2022-07-29T04:38:55.228Z,93703.34
2022-07-29T04:39:56.683Z,93711.16
2022-07-29T04:40:58.131Z,93707.19
2022-07-29T04:41:59.632Z,93708.94
2022-07-29T04:43:01.706Z,93710.66
2022-07-29T04:44:07.513Z,93707.00
2022-07-29T04:45:10.509Z,93705.34
2022-07-29T04:46:12.254Z,93706.50
2022-07-29T04:47:13.803Z,93700.38
2022-07-29T04:48:15.323Z,93708.72
2022-07-29T04:49:16.870Z,93702.56
2022-07-29T04:50:18.531Z,93707.66
2022-07-29T04:51:21.409Z,93704.66
2022-07-29T04:52:22.983Z,93712.06
2022-07-29T04:53:24.581Z,93715.44
2022-07-29T04:54:26.021Z,93712.88
2022-07-29T04:55:27.933Z,93719.22
2022-07-29T04:56:29.532Z,93715.75
2022-07-29T04:57:31.399Z,93707.31
2022-07-29T04:58:35.190Z,93709.41
2022-07-29T04:59:36.637Z,93707.78
2022-07-29T05:00:38.118Z,93707.44
2022-07-29T05:01:39.631Z,93706.63
2022-07-29T05:02:41.204Z,93715.44
2022-07-29T05:03:42.829Z,93713.91
2022-07-29T05:04:44.276Z,93717.63
2022-07-29T05:05:45.698Z,93713.91
2022-07-29T05:06:48.849Z,93716.59
2022-07-29T05:07:50.432Z,93715.31
2022-07-29T05:08:51.924Z,93717.03
2022-07-29T05:09:53.393Z,93722.72
2022-07-29T05:10:55.075Z,93714.38
2022-07-29T05:11:56.518Z,93724.22
2022-07-29T05:12:57.965Z,93721.66
2022-07-29T05:13:59.579Z,93720.16
2022-07-29T05:15:01.125Z,93719.59
2022-07-29T05:16:02.692Z,93725.69
2022-07-29T05:17:04.868Z,93727.69
2022-07-29T05:18:06.377Z,93726.63
2022-07-29T05:19:13.702Z,93726.47
2022-07-29T05:20:15.797Z,93722.25
2022-07-29T05:21:17.351Z,93726.81
2022-07-29T05:22:20.992Z,93726.22
2022-07-29T05:23:22.487Z,93727.84
2022-07-29T05:24:24.021Z,93728.63
2022-07-29T05:25:42.958Z,93726.19
2022-07-29T05:26:45.571Z,93731.63
2022-07-29T05:27:47.079Z,93733.28
2022-07-29T05:28:52.547Z,93736.75
2022-07-29T05:29:54.028Z,93738.53
2022-07-29T05:30:55.568Z,93733.41
2022-07-29T05:31:57.119Z,93734.03
2022-07-29T05:32:58.589Z,93736.53
2022-07-29T05:34:00.050Z,93734.56
2022-07-29T05:35:01.645Z,93734.19
2022-07-29T05:36:03.747Z,93736.47
2022-07-29T05:37:05.273Z,93742.34
2022-07-29T05:38:08.096Z,93745.78
2022-07-29T05:39:09.550Z,93739.47
2022-07-29T05:40:11.294Z,93741.16
2022-07-29T05:41:12.774Z,93746.00
2022-07-29T05:42:14.206Z,93748.28
2022-07-29T05:43:15.655Z,93744.53
2022-07-29T05:44:17.861Z,93744.81
2022-07-29T05:45:19.516Z,93744.81
2022-07-29T05:46:21.037Z,93748.09
2022-07-29T05:47:23.129Z,93752.25
2022-07-29T05:48:24.696Z,93745.25
2022-07-29T05:49:27.270Z,93751.56
2022-07-29T05:50:29.062Z,93748.91
2022-07-29T05:51:30.556Z,93756.41
2022-07-29T05:52:31.994Z,93748.44
2022-07-29T05:53:34.855Z,93749.91
2022-07-29T05:54:36.597Z,93756.03
2022-07-29T05:55:38.082Z,93759.56
2022-07-29T05:56:40.882Z,93762.22
2022-07-29T05:57:42.384Z,93760.44
2022-07-29T05:58:43.853Z,93759.78
2022-07-29T05:59:45.332Z,93755.16
2022-07-29T06:00:47.418Z,93760.81
2022-07-29T06:01:49.013Z,93757.34
2022-07-29T06:02:50.519Z,93762.06
2022-07-29T06:03:52.803Z,93760.50
2022-07-29T06:04:54.385Z,93761.00
2022-07-29T06:05:55.937Z,93766.56
2022-07-29T06:06:57.387Z,93754.56
2022-07-29T06:07:58.865Z,93759.97
2022-07-29T06:09:09.169Z,93767.09
2022-07-29T06:10:14.147Z,93769.28
2022-07-29T06:11:15.638Z,93779.66
2022-07-29T06:12:17.061Z,93764.88
2022-07-29T06:13:18.496Z,93772.97
2022-07-29T06:14:20.051Z,93772.44
2022-07-29T06:15:21.551Z,93767.81
2022-07-29T06:16:26.166Z,93771.84
2022-07-29T06:17:31.898Z,93772.47
2022-07-29T06:18:33.370Z,93770.94
2022-07-29T06:19:35.602Z,93780.66
2022-07-29T06:20:37.194Z,93773.44
2022-07-29T06:21:42.605Z,93778.97
2022-07-29T06:22:44.045Z,93778.91
2022-07-29T06:23:45.978Z,93778.13
2022-07-29T06:24:48.803Z,93779.22
2022-07-29T06:25:50.244Z,93775.84
2022-07-29T06:26:51.684Z,93779.50
2022-07-29T06:27:53.277Z,93788.34
2022-07-29T06:28:54.781Z,93785.47
2022-07-29T06:29:56.946Z,93781.72
2022-07-29T06:30:58.465Z,93784.63
2022-07-29T06:31:59.916Z,93787.31
2022-07-29T06:33:01.573Z,93785.75
2022-07-29T06:34:03.543Z,93786.06
2022-07-29T06:35:33.045Z,93789.16
2022-07-29T06:36:27.292Z,93792.97
2022-07-29T06:37:29.548Z,93798.47
2022-07-29T06:38:34.052Z,93803.00
2022-07-29T06:39:36.109Z,93794.50
2022-07-29T06:40:42.130Z,93795.38
2022-07-29T06:41:47.994Z,93804.47
2022-07-29T06:42:49.478Z,93798.63
2022-07-29T06:43:54.358Z,93805.16
2022-07-29T06:44:56.193Z,93799.00
2022-07-29T06:45:57.972Z,93799.88
2022-07-29T06:46:59.464Z,93800.28
2022-07-29T06:48:01.045Z,93797.44
2022-07-29T06:49:02.843Z,93804.72
2022-07-29T06:50:05.509Z,93808.06
2022-07-29T06:51:10.065Z,93804.63
2022-07-29T06:52:11.530Z,93803.69
2022-07-29T06:53:12.991Z,93804.25
2022-07-29T06:54:14.609Z,93804.81
2022-07-29T06:55:24.865Z,93810.41
2022-07-29T06:56:28.501Z,93808.63
2022-07-29T06:57:30.010Z,93801.72
2022-07-29T06:58:31.497Z,93803.78
2022-07-29T06:59:35.856Z,93813.34
2022-07-29T07:00:37.632Z,93805.22
2022-07-29T07:01:41.334Z,93811.00
2022-07-29T07:02:42.940Z,93810.00
2022-07-29T07:03:44.446Z,93814.72
2022-07-29T07:04:45.886Z,93806.72
2022-07-29T07:05:47.709Z,93819.59
2022-07-29T07:06:49.212Z,93807.16
2022-07-29T07:07:50.633Z,93814.78
2022-07-29T07:08:52.094Z,93809.75
2022-07-29T07:09:53.587Z,93813.31
2022-07-29T07:10:55.191Z,93805.81
2022-07-29T07:11:57.954Z,93803.50
2022-07-29T07:13:00.409Z,93812.75
2022-07-29T07:14:03.843Z,93815.00
2022-07-29T07:15:07.115Z,93810.25
2022-07-29T07:16:08.580Z,93810.00
2022-07-29T07:17:10.093Z,93814.47
2022-07-29T07:18:11.725Z,93811.63
2022-07-29T07:19:14.093Z,93809.44
2022-07-29T07:20:15.837Z,93815.84
2022-07-29T07:21:19.012Z,93814.28
2022-07-29T07:22:21.152Z,93820.63
2022-07-29T07:23:22.645Z,93817.78
2022-07-29T07:24:24.157Z,93818.28
2022-07-29T07:25:25.952Z,93815.91
2022-07-29T07:26:28.307Z,93819.44
2022-07-29T07:27:31.134Z,93822.50
2022-07-29T07:28:32.685Z,93820.84
2022-07-29T07:29:34.133Z,93816.56
2022-07-29T07:30:35.776Z,93823.03
2022-07-29T07:31:37.387Z,93823.72
2022-07-29T07:32:38.874Z,93823.72
2022-07-29T07:33:40.427Z,93825.56
2022-07-29T07:34:41.897Z,93821.25
2022-07-29T07:35:43.400Z,93825.31
2022-07-29T07:36:44.839Z,93826.97
2022-07-29T07:37:48.184Z,93824.47
2022-07-29T07:38:50.219Z,93817.84
2022-07-29T07:39:51.707Z,93824.81
2022-07-29T07:40:53.218Z,93825.22
2022-07-29T07:41:54.665Z,93822.38
2022-07-29T07:42:57.476Z,93819.56
2022-07-29T07:43:59.193Z,93827.03
2022-07-29T07:45:16.115Z,93818.94
2022-07-29T07:46:18.266Z,93827.84
2022-07-29T07:47:19.858Z,93825.41
2022-07-29T07:48:21.952Z,93818.78
2022-07-29T07:49:23.471Z,93823.38
2022-07-29T07:50:25.243Z,93822.66
2022-07-29T07:51:26.745Z,93817.91
2022-07-29T07:52:28.209Z,93815.53
2022-07-29T07:53:29.918Z,93816.84
2022-07-29T07:54:31.446Z,93822.22
2022-07-29T07:55:53.538Z,93821.13
2022-07-29T07:56:54.333Z,93818.72
2022-07-29T07:57:57.197Z,93816.41
2022-07-29T07:58:58.640Z,93813.13
2022-07-29T08:00:00.085Z,93825.34
2022-07-29T08:01:01.563Z,93822.31
2022-07-29T08:02:03.461Z,93829.78
2022-07-29T08:03:05.045Z,93824.38
2022-07-29T08:04:20.986Z,93819.97
2022-07-29T08:05:26.544Z,93817.53
2022-07-29T08:06:27.997Z,93817.91
2022-07-29T08:07:29.498Z,93818.91
2022-07-29T08:08:30.974Z,93816.78
2022-07-29T08:09:32.440Z,93818.16
2022-07-29T08:10:34.308Z,93810.28
2022-07-29T08:11:35.780Z,93816.28
2022-07-29T08:12:39.227Z,93814.28
2022-07-29T08:13:42.134Z,93811.03
2022-07-29T08:14:43.558Z,93812.41
2022-07-29T08:15:45.067Z,93814.84
2022-07-29T08:16:46.842Z,93818.31
2022-07-29T08:17:48.335Z,93817.25
2022-07-29T08:18:49.785Z,93811.06
2022-07-29T08:19:51.232Z,93809.69
2022-07-29T08:20:52.752Z,93817.75
2022-07-29T08:21:54.665Z,93819.66
2022-07-29T08:22:56.582Z,93822.09
2022-07-29T08:24:01.795Z,93824.50
2022-07-29T08:25:07.524Z,93819.69
2022-07-29T08:26:10.253Z,93819.13
2022-07-29T08:27:33.616Z,93819.94
2022-07-29T08:28:33.607Z,93824.78
2022-07-29T08:29:36.493Z,93823.47
2022-07-29T08:30:40.938Z,93817.78
2022-07-29T08:31:42.743Z,93827.19
2022-07-29T08:32:53.851Z,93825.56
2022-07-29T08:33:55.919Z,93829.06
2022-07-29T08:34:57.382Z,93829.59
2022-07-29T08:35:58.921Z,93837.16
2022-07-29T08:37:00.345Z,93830.94
2022-07-29T08:38:01.882Z,93837.72
2022-07-29T08:39:04.201Z,93839.88
2022-07-29T08:40:06.489Z,93839.34
2022-07-29T08:41:07.996Z,93837.69
2022-07-29T08:42:09.440Z,93840.50
2022-07-29T08:43:10.906Z,93835.53
2022-07-29T08:44:12.708Z,93842.00
2022-07-29T08:45:15.452Z,93834.47
2022-07-29T08:46:17.092Z,93836.63
2022-07-29T08:47:18.560Z,93837.69
2022-07-29T08:48:21.898Z,93839.31
2022-07-29T08:49:23.437Z,93829.38
2022-07-29T08:50:24.980Z,93838.78
2022-07-29T08:51:27.622Z,93832.53
2022-07-29T08:52:33.461Z,93829.97
2022-07-29T08:53:35.394Z,93830.34
2022-07-29T08:54:37.311Z,93833.28
2022-07-29T08:55:41.176Z,93825.63
2022-07-29T08:56:43.209Z,93825.31
2022-07-29T08:57:51.961Z,93829.22
2022-07-29T08:58:58.587Z,93824.94
2022-07-29T09:00:04.942Z,93826.91
2022-07-29T09:01:12.823Z,93826.78
2022-07-29T09:02:20.616Z,93833.09
2022-07-29T09:03:25.716Z,93830.28
2022-07-29T09:04:30.637Z,93824.34
2022-07-29T09:05:35.768Z,93831.00
2022-07-29T09:06:46.032Z,93834.63
2022-07-29T09:07:47.782Z,93835.72
2022-07-29T09:08:49.426Z,93830.31
2022-07-29T09:09:51.034Z,93829.53
2022-07-29T09:10:52.716Z,93831.19
2022-07-29T09:11:54.494Z,93829.28
2022-07-29T09:12:56.409Z,93833.84
2022-07-29T09:13:57.861Z,93836.03
2022-07-29T09:14:59.350Z,93840.31
2022-07-29T09:16:04.497Z,93838.97
2022-07-29T09:17:09.975Z,93832.38
2022-07-29T09:18:19.782Z,93842.72
2022-07-29T09:19:34.097Z,93845.13
2022-07-29T09:20:35.587Z,93843.00
2022-07-29T09:21:41.832Z,93842.34
2022-07-29T09:22:43.378Z,93840.56
2022-07-29T09:24:00.655Z,93843.19
2022-07-29T09:25:02.180Z,93845.84
2022-07-29T09:26:06.695Z,93844.19
2022-07-29T09:27:19.830Z,93843.41
2022-07-29T09:28:21.344Z,93843.81
2022-07-29T09:29:24.697Z,93853.31
2022-07-29T09:30:30.291Z,93850.38
2022-07-29T09:31:35.037Z,93844.16
2022-07-29T09:32:55.445Z,93854.94
2022-07-29T09:33:58.966Z,93847.13
2022-07-29T09:35:19.993Z,93844.66
2022-07-29T09:36:21.507Z,93849.53
2022-07-29T09:37:29.653Z,93847.97
2022-07-29T09:38:31.214Z,93846.84
2022-07-29T09:39:34.820Z,93836.91
2022-07-29T09:40:36.338Z,93844.47
2022-07-29T09:41:56.235Z,93841.19
2022-07-29T09:42:57.687Z,93850.66
2022-07-29T09:44:00.647Z,93846.34
2022-07-29T09:45:02.133Z,93845.50
2022-07-29T09:46:12.334Z,93844.69
2022-07-29T09:47:14.077Z,93841.75
2022-07-29T09:48:18.897Z,93842.78
2022-07-29T09:49:20.472Z,93844.69
2022-07-29T09:50:22.104Z,93842.78
2022-07-29T09:51:37.751Z,93851.44
2022-07-29T09:52:48.292Z,93844.44
2022-07-29T09:53:49.914Z,93848.50
2022-07-29T09:54:51.454Z,93843.06
2022-07-29T09:55:53.253Z,93842.56
2022-07-29T09:56:55.920Z,93840.91
2022-07-29T09:58:16.290Z,93840.13
2022-07-29T09:59:17.875Z,93852.50
2022-07-29T10:00:20.904Z,93850.56
2022-07-29T10:01:28.797Z,93844.41
2022-07-29T10:02:32.483Z,93849.75
2022-07-29T10:03:51.723Z,93844.34
2022-07-29T10:04:53.271Z,93846.03
2022-07-29T10:06:08.364Z,93839.44
2022-07-29T10:07:10.338Z,93837.91
2022-07-29T10:08:12.732Z,93832.78
2022-07-29T10:09:14.229Z,93840.81
2022-07-29T10:10:23.501Z,93838.66
2022-07-29T10:11:24.946Z,93841.97
2022-07-29T10:12:51.263Z,93841.41
2022-07-29T10:13:52.930Z,93840.56
2022-07-29T10:14:55.080Z,93837.66
2022-07-29T10:15:56.671Z,93841.16
2022-07-29T10:16:59.060Z,93837.94
2022-07-29T10:18:00.787Z,93842.72
2022-07-29T10:19:03.650Z,93836.38
2022-07-29T10:20:06.188Z,93832.22
2022-07-29T10:21:08.041Z,93839.78
2022-07-29T10:22:11.133Z,93835.47
2022-07-29T10:23:12.792Z,93832.53
2022-07-29T10:24:14.876Z,93834.47
2022-07-29T10:25:17.332Z,93830.44
2022-07-29T10:26:19.923Z,93830.44
2022-07-29T10:27:21.545Z,93832.59
2022-07-29T10:28:23.082Z,93828.00
2022-07-29T10:29:25.210Z,93826.94
2022-07-29T10:30:27.381Z,93829.13
2022-07-29T10:31:38.208Z,93823.44
2022-07-29T10:33:09.415Z,93824.28
2022-07-29T10:34:23.943Z,93829.13
2022-07-29T10:35:45.645Z,93824.22
2022-07-29T10:36:55.543Z,93817.25
2022-07-29T10:38:20.533Z,93821.56
2022-07-29T10:39:44.542Z,93823.69
2022-07-29T10:40:57.351Z,93826.66
2022-07-29T10:43:17.108Z,93823.16
2022-07-29T10:44:23.018Z,93824.47
2022-07-29T10:45:25.344Z,93831.25
2022-07-29T10:46:34.926Z,93825.84
2022-07-29T10:47:37.982Z,93832.56
2022-07-29T10:49:15.619Z,93834.47
2022-07-29T10:50:17.578Z,93823.06
2022-07-29T10:51:19.106Z,93825.50
2022-07-29T10:52:20.895Z,93822.44
2022-07-29T10:53:49.772Z,93819.00
2022-07-29T10:54:52.636Z,93811.72
2022-07-29T10:55:54.148Z,93810.75
2022-07-29T10:56:55.609Z,93818.22
2022-07-29T10:58:15.768Z,93811.09
2022-07-29T10:59:25.967Z,93814.69
2022-07-29T11:00:34.018Z,93810.47
2022-07-29T11:01:37.420Z,93813.19
2022-07-29T11:04:05.234Z,93808.03
2022-07-29T11:05:13.224Z,93808.28
2022-07-29T11:06:15.232Z,93807.19
2022-07-29T11:07:16.769Z,93811.47
2022-07-29T11:08:26.048Z,93805.28
2022-07-29T11:09:37.566Z,93806.59
2022-07-29T11:10:40.430Z,93800.16
2022-07-29T11:11:44.075Z,93800.69
2022-07-29T11:12:59.710Z,93805.72
2022-07-29T11:14:01.266Z,93796.81
2022-07-29T11:15:03.227Z,93806.91
2022-07-29T11:16:05.369Z,93799.84
2022-07-29T11:17:07.208Z,93803.88
2022-07-29T11:18:15.080Z,93806.59
2022-07-29T11:19:26.191Z,93804.16
2022-07-29T11:20:35.106Z,93807.69
2022-07-29T11:21:53.369Z,93797.63
2022-07-29T11:22:56.513Z,93794.88
2022-07-29T11:24:12.801Z,93798.50
2022-07-29T11:25:50.340Z,93799.63
2022-07-29T11:26:42.283Z,93796.19
2022-07-29T11:27:48.087Z,93799.19
2022-07-29T11:28:57.727Z,93798.13
2022-07-29T11:30:01.322Z,93800.84
2022-07-29T11:31:04.486Z,93789.50
2022-07-29T11:32:15.816Z,93792.44
2022-07-29T11:33:54.138Z,93790.06
2022-07-29T11:35:17.464Z,93792.72
2022-07-29T11:36:27.958Z,93794.66
2022-07-29T11:37:30.074Z,93788.75
2022-07-29T11:38:33.331Z,93795.44
2022-07-29T11:39:36.360Z,93797.56
2022-07-29T11:40:38.811Z,93800.84
2022-07-29T11:41:44.274Z,93805.94
2022-07-29T11:42:52.148Z,93812.94
2022-07-29T11:43:55.661Z,93813.16
2022-07-29T11:44:58.840Z,93817.44
2022-07-29T11:46:05.998Z,93818.50
2022-07-29T11:47:12.015Z,93820.66
2022-07-29T11:48:28.798Z,93810.66
2022-07-29T11:49:33.304Z,93818.16
2022-07-29T11:50:37.857Z,93817.69
2022-07-29T11:51:52.542Z,93807.66
2022-07-29T11:52:54.574Z,93811.72
2022-07-29T11:54:02.580Z,93807.72
2022-07-29T11:56:32.677Z,93805.03
2022-07-29T11:57:37.373Z,93804.00
2022-07-29T11:58:39.232Z,93794.88
2022-07-29T11:59:41.362Z,93803.38
2022-07-29T12:00:47.089Z,93795.09
2022-07-29T12:02:12.038Z,93798.38
2022-07-29T12:03:35.119Z,93793.09
2022-07-29T12:04:49.238Z,93799.16
2022-07-29T12:05:51.922Z,93798.28
2022-07-29T12:06:55.741Z,93792.34
2022-07-29T12:08:05.980Z,93791.28
2022-07-29T12:09:08.422Z,93788.16
2022-07-29T12:10:19.456Z,93789.16
2022-07-29T12:11:23.398Z,93775.00
2022-07-29T12:12:25.446Z,93789.91
2022-07-29T12:13:39.936Z,93782.38
2022-07-29T12:14:41.394Z,93785.81
2022-07-29T12:15:47.130Z,93781.41
2022-07-29T12:16:48.987Z,93777.56
2022-07-29T12:17:50.628Z,93785.72
2022-07-29T12:18:59.671Z,93795.56
2022-07-29T12:20:03.773Z,93790.25
2022-07-29T12:21:05.295Z,93781.97
2022-07-29T12:22:08.076Z,93785.75
2022-07-29T12:23:10.663Z,93778.06
2022-07-29T12:24:15.081Z,93777.25
2022-07-29T12:25:33.075Z,93774.06
2022-07-29T12:26:35.927Z,93770.59
2022-07-29T12:27:40.582Z,93777.81
2022-07-29T12:28:42.215Z,93775.25
2022-07-29T12:29:57.005Z,93768.41
2022-07-29T12:31:00.148Z,93767.28
2022-07-29T12:32:04.986Z,93758.09
2022-07-29T12:33:12.548Z,93759.59
2022-07-29T12:34:16.589Z,93761.25
2022-07-29T12:35:20.525Z,93753.28
2022-07-29T12:36:22.045Z,93754.50
2022-07-29T12:37:38.966Z,93763.22
2022-07-29T12:38:43.008Z,93753.34
2022-07-29T12:39:44.606Z,93761.41
2022-07-29T12:40:47.919Z,93762.25